sensor_id;sensor_type;location;lat;lon;timestamp;temperature;humidity
44513;DHT22;30219;50.588;9.504;2022-10-13T00:02:09;7.10;99.90
44513;DHT22;30219;50.588;9.504;2022-10-13T00:04:35;7.00;99.90
44513;DHT22;30219;50.588;9.504;2022-10-13T00:07:00;7.00;99.90
44513;DHT22;30219;50.588;9.504;2022-10-13T00:09:26;6.90;99.90
44513;DHT22;30219;50.588;9.504;2022-10-13T00:11:56;6.80;99.90
44513;DHT22;30219;50.588;9.504;2022-10-13T00:14:22;6.80;99.90
44513;DHT22;30219;50.588;9.504;2022-10-13T00:16:47;6.70;99.90
44513;DHT22;30219;50.588;9.504;2022-10-13T00:19:13;6.70;99.90
44513;DHT22;30219;50.588;9.504;2022-10-13T00:21:39;6.70;99.90
44513;DHT22;30219;50.588;9.504;2022-10-13T00:24:04;6.70;99.90
44513;DHT22;30219;50.588;9.504;2022-10-13T00:26:30;6.80;99.90
44513;DHT22;30219;50.588;9.504;2022-10-13T00:28:56;6.90;99.90
44513;DHT22;30219;50.588;9.504;2022-10-13T00:31:29;6.90;99.90
44513;DHT22;30219;50.588;9.504;2022-10-13T00:33:57;6.90;99.90
44513;DHT22;30219;50.588;9.504;2022-10-13T00:36:23;6.80;99.90
44513;DHT22;30219;50.588;9.504;2022-10-13T00:38:49;6.70;99.90
44513;DHT22;30219;50.588;9.504;2022-10-13T00:41:15;6.60;99.90
44513;DHT22;30219;50.588;9.504;2022-10-13T00:46:22;6.60;99.90
44513;DHT22;30219;50.588;9.504;2022-10-13T00:48:49;6.60;99.90
44513;DHT22;30219;50.588;9.504;2022-10-13T00:51:18;6.70;99.90
44513;DHT22;30219;50.588;9.504;2022-10-13T00:53:45;6.80;99.90
44513;DHT22;30219;50.588;9.504;2022-10-13T00:56:12;6.80;99.90
44513;DHT22;30219;50.588;9.504;2022-10-13T00:58:40;6.80;99.90
44513;DHT22;30219;50.588;9.504;2022-10-13T01:01:06;6.80;99.90
44513;DHT22;30219;50.588;9.504;2022-10-13T01:03:32;6.90;99.90
44513;DHT22;30219;50.588;9.504;2022-10-13T01:06:00;6.90;99.90
44513;DHT22;30219;50.588;9.504;2022-10-13T01:08:28;6.90;99.90
44513;DHT22;30219;50.588;9.504;2022-10-13T01:14:08;6.90;99.90
44513;DHT22;30219;50.588;9.504;2022-10-13T01:20:05;6.80;99.90
44513;DHT22;30219;50.588;9.504;2022-10-13T01:25:06;6.90;99.90
44513;DHT22;30219;50.588;9.504;2022-10-13T01:30:24;6.90;99.90
44513;DHT22;30219;50.588;9.504;2022-10-13T01:38:28;6.70;99.90
44513;DHT22;30219;50.588;9.504;2022-10-13T01:43:59;6.70;99.90
44513;DHT22;30219;50.588;9.504;2022-10-13T01:46:34;6.60;99.90
44513;DHT22;30219;50.588;9.504;2022-10-13T01:49:03;6.60;99.90
44513;DHT22;30219;50.588;9.504;2022-10-13T01:51:30;6.60;99.90
44513;DHT22;30219;50.588;9.504;2022-10-13T01:53:57;6.50;99.90
44513;DHT22;30219;50.588;9.504;2022-10-13T01:56:22;6.50;99.90
44513;DHT22;30219;50.588;9.504;2022-10-13T01:58:49;6.60;99.90
44513;DHT22;30219;50.588;9.504;2022-10-13T02:04:25;6.70;99.90
44513;DHT22;30219;50.588;9.504;2022-10-13T02:09:45;6.70;99.90
44513;DHT22;30219;50.588;9.504;2022-10-13T02:12:29;6.70;99.90
44513;DHT22;30219;50.588;9.504;2022-10-13T02:14:58;6.70;99.90
44513;DHT22;30219;50.588;9.504;2022-10-13T02:17:26;6.70;99.90
44513;DHT22;30219;50.588;9.504;2022-10-13T02:19:53;6.70;99.90
44513;DHT22;30219;50.588;9.504;2022-10-13T02:22:21;6.70;99.90
44513;DHT22;30219;50.588;9.504;2022-10-13T02:24:48;6.70;99.90
44513;DHT22;30219;50.588;9.504;2022-10-13T02:27:14;6.70;99.90
44513;DHT22;30219;50.588;9.504;2022-10-13T02:29:51;6.70;99.90
44513;DHT22;30219;50.588;9.504;2022-10-13T02:32:17;6.80;99.90
44513;DHT22;30219;50.588;9.504;2022-10-13T02:34:43;6.80;99.90
44513;DHT22;30219;50.588;9.504;2022-10-13T02:37:08;6.80;99.90
44513;DHT22;30219;50.588;9.504;2022-10-13T02:39:34;6.80;99.90
44513;DHT22;30219;50.588;9.504;2022-10-13T02:41:59;6.80;99.90
44513;DHT22;30219;50.588;9.504;2022-10-13T02:44:25;6.90;99.90
44513;DHT22;30219;50.588;9.504;2022-10-13T02:46:50;7.00;99.90
44513;DHT22;30219;50.588;9.504;2022-10-13T02:49:16;7.00;99.90
44513;DHT22;30219;50.588;9.504;2022-10-13T02:51:41;7.00;99.90
44513;DHT22;30219;50.588;9.504;2022-10-13T02:54:07;6.90;99.90
44513;DHT22;30219;50.588;9.504;2022-10-13T02:56:33;7.00;99.90
44513;DHT22;30219;50.588;9.504;2022-10-13T02:58:58;7.00;99.90
44513;DHT22;30219;50.588;9.504;2022-10-13T03:01:24;7.00;99.90
44513;DHT22;30219;50.588;9.504;2022-10-13T03:03:49;7.00;99.90
44513;DHT22;30219;50.588;9.504;2022-10-13T03:06:15;7.00;99.90
44513;DHT22;30219;50.588;9.504;2022-10-13T03:08:40;7.00;99.90
44513;DHT22;30219;50.588;9.504;2022-10-13T03:11:06;7.00;99.90
44513;DHT22;30219;50.588;9.504;2022-10-13T03:13:32;7.00;99.90
44513;DHT22;30219;50.588;9.504;2022-10-13T03:15:57;7.00;99.90
44513;DHT22;30219;50.588;9.504;2022-10-13T03:18:23;6.90;99.90
44513;DHT22;30219;50.588;9.504;2022-10-13T03:21:01;6.90;99.90
44513;DHT22;30219;50.588;9.504;2022-10-13T03:23:27;7.00;99.90
44513;DHT22;30219;50.588;9.504;2022-10-13T03:25:53;7.00;99.90
44513;DHT22;30219;50.588;9.504;2022-10-13T03:28:19;7.10;99.90
44513;DHT22;30219;50.588;9.504;2022-10-13T03:30:44;7.10;99.90
44513;DHT22;30219;50.588;9.504;2022-10-13T03:33:10;7.10;99.90
44513;DHT22;30219;50.588;9.504;2022-10-13T03:35:36;7.10;99.90
44513;DHT22;30219;50.588;9.504;2022-10-13T03:38:02;7.10;99.90
44513;DHT22;30219;50.588;9.504;2022-10-13T03:40:27;7.00;99.90
44513;DHT22;30219;50.588;9.504;2022-10-13T03:42:53;7.10;99.90
44513;DHT22;30219;50.588;9.504;2022-10-13T03:45:19;7.10;99.90
44513;DHT22;30219;50.588;9.504;2022-10-13T03:47:44;7.10;99.90
44513;DHT22;30219;50.588;9.504;2022-10-13T03:50:10;7.10;99.90
44513;DHT22;30219;50.588;9.504;2022-10-13T03:52:36;7.20;99.90
44513;DHT22;30219;50.588;9.504;2022-10-13T03:55:02;7.20;99.90
44513;DHT22;30219;50.588;9.504;2022-10-13T03:57:27;7.30;99.90
44513;DHT22;30219;50.588;9.504;2022-10-13T03:59:53;7.40;99.90
44513;DHT22;30219;50.588;9.504;2022-10-13T04:02:21;7.30;99.90
44513;DHT22;30219;50.588;9.504;2022-10-13T04:04:46;7.30;99.90
44513;DHT22;30219;50.588;9.504;2022-10-13T04:07:12;7.40;99.90
44513;DHT22;30219;50.588;9.504;2022-10-13T04:09:37;7.40;99.90
44513;DHT22;30219;50.588;9.504;2022-10-13T04:12:03;7.40;99.90
44513;DHT22;30219;50.588;9.504;2022-10-13T04:14:29;7.30;99.90
44513;DHT22;30219;50.588;9.504;2022-10-13T04:16:54;7.40;99.90
44513;DHT22;30219;50.588;9.504;2022-10-13T04:19:23;7.40;99.90
44513;DHT22;30219;50.588;9.504;2022-10-13T04:21:48;7.40;99.90
44513;DHT22;30219;50.588;9.504;2022-10-13T04:24:14;7.40;99.90
44513;DHT22;30219;50.588;9.504;2022-10-13T04:26:41;7.40;99.90
44513;DHT22;30219;50.588;9.504;2022-10-13T04:29:10;7.50;99.90
44513;DHT22;30219;50.588;9.504;2022-10-13T04:31:36;7.50;99.90
44513;DHT22;30219;50.588;9.504;2022-10-13T04:34:02;7.50;99.90
44513;DHT22;30219;50.588;9.504;2022-10-13T04:36:28;7.50;99.90
44513;DHT22;30219;50.588;9.504;2022-10-13T04:38:54;7.60;99.90
44513;DHT22;30219;50.588;9.504;2022-10-13T04:41:20;7.60;99.90
44513;DHT22;30219;50.588;9.504;2022-10-13T04:43:47;7.70;99.90
44513;DHT22;30219;50.588;9.504;2022-10-13T04:46:21;7.70;99.90
44513;DHT22;30219;50.588;9.504;2022-10-13T04:48:47;7.70;99.90
44513;DHT22;30219;50.588;9.504;2022-10-13T04:51:18;7.80;99.90
44513;DHT22;30219;50.588;9.504;2022-10-13T04:53:44;7.80;99.90
44513;DHT22;30219;50.588;9.504;2022-10-13T04:56:12;7.70;99.90
44513;DHT22;30219;50.588;9.504;2022-10-13T04:58:39;7.70;99.90
44513;DHT22;30219;50.588;9.504;2022-10-13T05:01:06;7.60;99.90
44513;DHT22;30219;50.588;9.504;2022-10-13T05:03:33;7.60;99.90
44513;DHT22;30219;50.588;9.504;2022-10-13T05:05:59;7.60;99.90
44513;DHT22;30219;50.588;9.504;2022-10-13T05:08:25;7.60;99.90
44513;DHT22;30219;50.588;9.504;2022-10-13T05:10:55;7.60;99.90
44513;DHT22;30219;50.588;9.504;2022-10-13T05:13:22;7.50;99.90
44513;DHT22;30219;50.588;9.504;2022-10-13T05:15:47;7.50;99.90
44513;DHT22;30219;50.588;9.504;2022-10-13T05:18:13;7.50;99.90
44513;DHT22;30219;50.588;9.504;2022-10-13T05:20:38;7.50;99.90
44513;DHT22;30219;50.588;9.504;2022-10-13T05:23:04;7.50;99.90
44513;DHT22;30219;50.588;9.504;2022-10-13T05:25:30;7.50;99.90
44513;DHT22;30219;50.588;9.504;2022-10-13T05:27:55;7.60;99.90
44513;DHT22;30219;50.588;9.504;2022-10-13T05:30:21;7.60;99.90
44513;DHT22;30219;50.588;9.504;2022-10-13T05:32:46;7.60;99.90
44513;DHT22;30219;50.588;9.504;2022-10-13T05:35:12;7.70;99.90
44513;DHT22;30219;50.588;9.504;2022-10-13T05:37:38;7.70;99.90
44513;DHT22;30219;50.588;9.504;2022-10-13T05:40:03;7.70;99.90
44513;DHT22;30219;50.588;9.504;2022-10-13T05:42:29;7.70;99.90
44513;DHT22;30219;50.588;9.504;2022-10-13T05:44:56;7.80;99.90
44513;DHT22;30219;50.588;9.504;2022-10-13T05:47:21;7.90;99.90
44513;DHT22;30219;50.588;9.504;2022-10-13T05:49:51;7.90;99.90
44513;DHT22;30219;50.588;9.504;2022-10-13T05:52:16;8.00;99.90
44513;DHT22;30219;50.588;9.504;2022-10-13T05:54:45;8.00;99.90
44513;DHT22;30219;50.588;9.504;2022-10-13T05:59:46;8.00;99.90
44513;DHT22;30219;50.588;9.504;2022-10-13T06:02:14;8.10;99.90
44513;DHT22;30219;50.588;9.504;2022-10-13T06:04:45;8.20;99.90
44513;DHT22;30219;50.588;9.504;2022-10-13T06:07:12;8.30;99.90
44513;DHT22;30219;50.588;9.504;2022-10-13T06:09:39;8.30;99.90
44513;DHT22;30219;50.588;9.504;2022-10-13T06:12:06;8.30;99.90
44513;DHT22;30219;50.588;9.504;2022-10-13T06:14:31;8.40;99.90
44513;DHT22;30219;50.588;9.504;2022-10-13T06:16:57;8.40;99.90
44513;DHT22;30219;50.588;9.504;2022-10-13T06:19:23;8.40;99.90
44513;DHT22;30219;50.588;9.504;2022-10-13T06:21:49;8.40;99.90
44513;DHT22;30219;50.588;9.504;2022-10-13T06:24:14;8.30;99.90
44513;DHT22;30219;50.588;9.504;2022-10-13T06:26:40;8.40;99.90
44513;DHT22;30219;50.588;9.504;2022-10-13T06:29:06;8.50;99.90
44513;DHT22;30219;50.588;9.504;2022-10-13T06:31:31;8.50;99.90
44513;DHT22;30219;50.588;9.504;2022-10-13T06:33:57;8.40;99.90
44513;DHT22;30219;50.588;9.504;2022-10-13T06:36:23;8.40;99.90
44513;DHT22;30219;50.588;9.504;2022-10-13T06:38:49;8.50;99.90
44513;DHT22;30219;50.588;9.504;2022-10-13T06:41:15;8.50;99.90
44513;DHT22;30219;50.588;9.504;2022-10-13T06:43:40;8.60;99.90
44513;DHT22;30219;50.588;9.504;2022-10-13T06:46:06;8.50;99.90
44513;DHT22;30219;50.588;9.504;2022-10-13T06:48:32;8.50;99.90
44513;DHT22;30219;50.588;9.504;2022-10-13T06:51:06;8.50;99.90
44513;DHT22;30219;50.588;9.504;2022-10-13T06:53:33;8.50;99.90
44513;DHT22;30219;50.588;9.504;2022-10-13T06:56:00;8.50;99.90
44513;DHT22;30219;50.588;9.504;2022-10-13T06:58:26;8.60;99.90
44513;DHT22;30219;50.588;9.504;2022-10-13T07:00:52;8.70;99.90
44513;DHT22;30219;50.588;9.504;2022-10-13T07:03:18;8.70;99.90
44513;DHT22;30219;50.588;9.504;2022-10-13T07:05:43;8.80;99.90
44513;DHT22;30219;50.588;9.504;2022-10-13T07:08:09;8.90;99.90
44513;DHT22;30219;50.588;9.504;2022-10-13T07:10:37;9.00;99.90
44513;DHT22;30219;50.588;9.504;2022-10-13T07:13:03;9.10;99.90
44513;DHT22;30219;50.588;9.504;2022-10-13T07:15:28;9.20;99.90
44513;DHT22;30219;50.588;9.504;2022-10-13T07:17:54;9.40;99.90
44513;DHT22;30219;50.588;9.504;2022-10-13T07:20:23;9.60;99.90
44513;DHT22;30219;50.588;9.504;2022-10-13T07:22:52;9.70;99.90
44513;DHT22;30219;50.588;9.504;2022-10-13T07:25:18;9.80;99.90
44513;DHT22;30219;50.588;9.504;2022-10-13T07:27:43;9.90;99.90
44513;DHT22;30219;50.588;9.504;2022-10-13T07:30:10;9.90;99.90
44513;DHT22;30219;50.588;9.504;2022-10-13T07:32:36;9.80;99.90
44513;DHT22;30219;50.588;9.504;2022-10-13T07:35:03;9.90;99.90
44513;DHT22;30219;50.588;9.504;2022-10-13T07:37:29;10.00;99.90
44513;DHT22;30219;50.588;9.504;2022-10-13T07:39:54;10.20;99.90
44513;DHT22;30219;50.588;9.504;2022-10-13T07:42:20;10.20;99.90
44513;DHT22;30219;50.588;9.504;2022-10-13T07:44:46;10.40;99.90
44513;DHT22;30219;50.588;9.504;2022-10-13T07:47:11;10.40;99.90
44513;DHT22;30219;50.588;9.504;2022-10-13T07:49:37;10.50;99.90
44513;DHT22;30219;50.588;9.504;2022-10-13T07:52:03;10.50;99.90
44513;DHT22;30219;50.588;9.504;2022-10-13T07:54:28;10.60;99.90
44513;DHT22;30219;50.588;9.504;2022-10-13T07:56:55;10.70;99.90
44513;DHT22;30219;50.588;9.504;2022-10-13T07:59:21;10.80;99.90
44513;DHT22;30219;50.588;9.504;2022-10-13T08:01:47;10.80;99.90
44513;DHT22;30219;50.588;9.504;2022-10-13T08:04:12;10.90;99.90
44513;DHT22;30219;50.588;9.504;2022-10-13T08:06:38;10.90;99.90
44513;DHT22;30219;50.588;9.504;2022-10-13T08:09:04;11.00;99.90
44513;DHT22;30219;50.588;9.504;2022-10-13T08:11:30;11.00;99.90
44513;DHT22;30219;50.588;9.504;2022-10-13T08:13:56;11.00;99.90
44513;DHT22;30219;50.588;9.504;2022-10-13T08:16:26;11.10;99.90
44513;DHT22;30219;50.588;9.504;2022-10-13T08:18:52;11.10;99.90
44513;DHT22;30219;50.588;9.504;2022-10-13T08:21:19;11.10;99.90
44513;DHT22;30219;50.588;9.504;2022-10-13T08:23:46;11.20;99.90
44513;DHT22;30219;50.588;9.504;2022-10-13T08:26:21;11.20;99.90
44513;DHT22;30219;50.588;9.504;2022-10-13T08:28:48;11.40;99.90
44513;DHT22;30219;50.588;9.504;2022-10-13T08:31:14;11.50;99.90
44513;DHT22;30219;50.588;9.504;2022-10-13T08:33:40;11.60;99.90
44513;DHT22;30219;50.588;9.504;2022-10-13T08:36:06;11.80;99.90
44513;DHT22;30219;50.588;9.504;2022-10-13T08:38:32;11.90;99.90
44513;DHT22;30219;50.588;9.504;2022-10-13T08:40:58;12.10;99.90
44513;DHT22;30219;50.588;9.504;2022-10-13T08:43:25;12.30;99.90
44513;DHT22;30219;50.588;9.504;2022-10-13T08:45:55;12.50;99.90
44513;DHT22;30219;50.588;9.504;2022-10-13T08:48:25;12.60;99.90
44513;DHT22;30219;50.588;9.504;2022-10-13T08:50:55;12.70;99.90
44513;DHT22;30219;50.588;9.504;2022-10-13T08:53:36;12.90;99.90
44513;DHT22;30219;50.588;9.504;2022-10-13T08:56:21;13.00;99.90
44513;DHT22;30219;50.588;9.504;2022-10-13T08:58:50;12.90;99.90
44513;DHT22;30219;50.588;9.504;2022-10-13T09:01:21;13.00;99.90
44513;DHT22;30219;50.588;9.504;2022-10-13T09:03:50;13.20;99.90
44513;DHT22;30219;50.588;9.504;2022-10-13T09:09:06;13.00;99.90
44513;DHT22;30219;50.588;9.504;2022-10-13T09:11:34;13.00;99.90
44513;DHT22;30219;50.588;9.504;2022-10-13T09:14:04;12.90;99.90
44513;DHT22;30219;50.588;9.504;2022-10-13T09:16:38;12.80;99.90
44513;DHT22;30219;50.588;9.504;2022-10-13T09:21:46;12.70;99.90
44513;DHT22;30219;50.588;9.504;2022-10-13T09:24:17;12.70;99.90
44513;DHT22;30219;50.588;9.504;2022-10-13T09:26:45;12.60;99.90
44513;DHT22;30219;50.588;9.504;2022-10-13T09:29:23;12.80;99.90
44513;DHT22;30219;50.588;9.504;2022-10-13T09:31:50;12.80;99.90
44513;DHT22;30219;50.588;9.504;2022-10-13T09:36:58;12.90;99.90
44513;DHT22;30219;50.588;9.504;2022-10-13T09:39:25;13.00;99.90
44513;DHT22;30219;50.588;9.504;2022-10-13T09:41:51;13.10;99.90
44513;DHT22;30219;50.588;9.504;2022-10-13T09:44:29;13.30;99.90
44513;DHT22;30219;50.588;9.504;2022-10-13T09:46:57;13.30;99.90
44513;DHT22;30219;50.588;9.504;2022-10-13T09:49:34;13.50;99.90
44513;DHT22;30219;50.588;9.504;2022-10-13T09:52:05;13.70;99.90
44513;DHT22;30219;50.588;9.504;2022-10-13T09:54:49;13.60;99.90
44513;DHT22;30219;50.588;9.504;2022-10-13T09:57:30;13.80;99.90
44513;DHT22;30219;50.588;9.504;2022-10-13T10:03:15;13.80;99.90
44513;DHT22;30219;50.588;9.504;2022-10-13T10:05:49;13.80;99.90
44513;DHT22;30219;50.588;9.504;2022-10-13T10:08:21;13.60;99.90
44513;DHT22;30219;50.588;9.504;2022-10-13T10:10:50;13.60;99.90
44513;DHT22;30219;50.588;9.504;2022-10-13T10:13:17;13.50;99.90
44513;DHT22;30219;50.588;9.504;2022-10-13T10:18:41;13.40;99.90
44513;DHT22;30219;50.588;9.504;2022-10-13T10:45:58;14.00;99.90
44513;DHT22;30219;50.588;9.504;2022-10-13T10:48:32;14.00;99.90
44513;DHT22;30219;50.588;9.504;2022-10-13T10:50:59;13.90;99.90
44513;DHT22;30219;50.588;9.504;2022-10-13T10:56:21;13.70;99.90
44513;DHT22;30219;50.588;9.504;2022-10-13T11:06:55;13.50;99.90
44513;DHT22;30219;50.588;9.504;2022-10-13T11:19:53;13.20;99.90
44513;DHT22;30219;50.588;9.504;2022-10-13T11:22:21;13.20;99.90
44513;DHT22;30219;50.588;9.504;2022-10-13T11:24:50;13.10;99.90
44513;DHT22;30219;50.588;9.504;2022-10-13T11:27:22;13.10;99.90
44513;DHT22;30219;50.588;9.504;2022-10-13T11:29:55;13.00;99.90
44513;DHT22;30219;50.588;9.504;2022-10-13T11:40:43;12.90;99.90
44513;DHT22;30219;50.588;9.504;2022-10-13T11:45:45;13.00;99.90
44513;DHT22;30219;50.588;9.504;2022-10-13T11:54:45;13.40;99.90
44513;DHT22;30219;50.588;9.504;2022-10-13T11:57:00;13.40;99.90
44513;DHT22;30219;50.588;9.504;2022-10-13T11:59:33;13.50;99.90
44513;DHT22;30219;50.588;9.504;2022-10-13T12:04:34;13.60;99.90
44513;DHT22;30219;50.588;9.504;2022-10-13T12:07:10;13.50;99.90
44513;DHT22;30219;50.588;9.504;2022-10-13T12:09:51;13.50;99.90
44513;DHT22;30219;50.588;9.504;2022-10-13T12:12:18;13.50;99.90
44513;DHT22;30219;50.588;9.504;2022-10-13T12:14:48;13.50;99.90
44513;DHT22;30219;50.588;9.504;2022-10-13T12:17:21;13.50;99.90
44513;DHT22;30219;50.588;9.504;2022-10-13T12:19:48;13.70;99.90
44513;DHT22;30219;50.588;9.504;2022-10-13T12:22:14;13.80;99.90
44513;DHT22;30219;50.588;9.504;2022-10-13T12:24:40;13.90;99.90
44513;DHT22;30219;50.588;9.504;2022-10-13T12:27:10;14.00;99.90
44513;DHT22;30219;50.588;9.504;2022-10-13T12:29:41;14.10;99.90
44513;DHT22;30219;50.588;9.504;2022-10-13T12:32:30;14.40;99.90
44513;DHT22;30219;50.588;9.504;2022-10-13T12:35:18;14.40;99.90
44513;DHT22;30219;50.588;9.504;2022-10-13T12:37:44;14.50;99.90
44513;DHT22;30219;50.588;9.504;2022-10-13T12:40:15;14.50;99.90
44513;DHT22;30219;50.588;9.504;2022-10-13T12:42:41;14.40;99.90
44513;DHT22;30219;50.588;9.504;2022-10-13T12:45:14;14.20;99.90
44513;DHT22;30219;50.588;9.504;2022-10-13T12:52:55;14.30;99.90
44513;DHT22;30219;50.588;9.504;2022-10-13T12:55:22;14.20;99.90
44513;DHT22;30219;50.588;9.504;2022-10-13T12:57:49;14.20;99.90
44513;DHT22;30219;50.588;9.504;2022-10-13T13:00:20;14.10;99.90
44513;DHT22;30219;50.588;9.504;2022-10-13T13:03:00;14.20;99.90
44513;DHT22;30219;50.588;9.504;2022-10-13T13:05:33;14.10;99.90
44513;DHT22;30219;50.588;9.504;2022-10-13T13:08:00;14.10;99.90
44513;DHT22;30219;50.588;9.504;2022-10-13T13:10:26;14.10;99.90
44513;DHT22;30219;50.588;9.504;2022-10-13T13:12:53;14.10;99.90
44513;DHT22;30219;50.588;9.504;2022-10-13T13:15:34;14.10;99.90
44513;DHT22;30219;50.588;9.504;2022-10-13T13:18:37;14.10;99.90
44513;DHT22;30219;50.588;9.504;2022-10-13T13:21:07;14.10;99.90
44513;DHT22;30219;50.588;9.504;2022-10-13T13:23:33;14.10;99.90
44513;DHT22;30219;50.588;9.504;2022-10-13T13:26:14;13.90;99.90
44513;DHT22;30219;50.588;9.504;2022-10-13T13:28:51;13.90;99.90
44513;DHT22;30219;50.588;9.504;2022-10-13T13:31:20;13.90;99.90
44513;DHT22;30219;50.588;9.504;2022-10-13T13:33:46;13.90;99.90
44513;DHT22;30219;50.588;9.504;2022-10-13T13:36:22;13.80;99.90
44513;DHT22;30219;50.588;9.504;2022-10-13T13:38:48;13.90;99.90
44513;DHT22;30219;50.588;9.504;2022-10-13T13:41:14;14.00;99.90
44513;DHT22;30219;50.588;9.504;2022-10-13T13:43:40;14.10;99.90
44513;DHT22;30219;50.588;9.504;2022-10-13T13:46:14;14.10;99.90
44513;DHT22;30219;50.588;9.504;2022-10-13T13:48:40;14.10;99.90
44513;DHT22;30219;50.588;9.504;2022-10-13T13:51:06;14.10;99.90
44513;DHT22;30219;50.588;9.504;2022-10-13T13:53:32;14.00;99.90
44513;DHT22;30219;50.588;9.504;2022-10-13T13:55:58;14.10;99.90
44513;DHT22;30219;50.588;9.504;2022-10-13T13:58:23;14.00;99.90
44513;DHT22;30219;50.588;9.504;2022-10-13T14:00:49;13.90;99.90
44513;DHT22;30219;50.588;9.504;2022-10-13T14:03:14;14.00;99.90
44513;DHT22;30219;50.588;9.504;2022-10-13T14:05:40;13.90;99.90
44513;DHT22;30219;50.588;9.504;2022-10-13T14:08:06;13.90;99.90
44513;DHT22;30219;50.588;9.504;2022-10-13T14:10:33;14.00;99.90
44513;DHT22;30219;50.588;9.504;2022-10-13T14:12:58;14.10;99.90
44513;DHT22;30219;50.588;9.504;2022-10-13T14:15:24;14.10;99.90
44513;DHT22;30219;50.588;9.504;2022-10-13T14:17:51;14.20;99.90
44513;DHT22;30219;50.588;9.504;2022-10-13T14:20:17;14.20;99.90
44513;DHT22;30219;50.588;9.504;2022-10-13T14:22:42;14.30;99.90
44513;DHT22;30219;50.588;9.504;2022-10-13T14:25:08;14.20;99.90
44513;DHT22;30219;50.588;9.504;2022-10-13T14:27:35;14.10;99.90
44513;DHT22;30219;50.588;9.504;2022-10-13T14:30:04;14.00;99.90
44513;DHT22;30219;50.588;9.504;2022-10-13T14:32:29;14.10;99.90
44513;DHT22;30219;50.588;9.504;2022-10-13T14:34:55;13.90;99.90
44513;DHT22;30219;50.588;9.504;2022-10-13T14:37:21;13.90;99.90
44513;DHT22;30219;50.588;9.504;2022-10-13T14:39:46;14.10;99.90
44513;DHT22;30219;50.588;9.504;2022-10-13T14:42:12;14.20;99.90
44513;DHT22;30219;50.588;9.504;2022-10-13T14:44:37;14.30;99.90
44513;DHT22;30219;50.588;9.504;2022-10-13T14:47:03;14.30;99.90
44513;DHT22;30219;50.588;9.504;2022-10-13T14:49:28;14.30;99.90
44513;DHT22;30219;50.588;9.504;2022-10-13T14:51:54;14.30;99.90
44513;DHT22;30219;50.588;9.504;2022-10-13T14:54:19;14.30;99.90
44513;DHT22;30219;50.588;9.504;2022-10-13T14:56:45;14.20;99.90
44513;DHT22;30219;50.588;9.504;2022-10-13T14:59:11;14.10;99.90
44513;DHT22;30219;50.588;9.504;2022-10-13T15:01:37;14.10;99.90
44513;DHT22;30219;50.588;9.504;2022-10-13T15:04:04;14.10;99.90
44513;DHT22;30219;50.588;9.504;2022-10-13T15:06:30;14.10;99.90
44513;DHT22;30219;50.588;9.504;2022-10-13T15:08:56;14.20;99.90
44513;DHT22;30219;50.588;9.504;2022-10-13T15:11:22;14.10;99.90
44513;DHT22;30219;50.588;9.504;2022-10-13T15:13:48;14.10;99.90
44513;DHT22;30219;50.588;9.504;2022-10-13T15:16:20;14.20;99.90
44513;DHT22;30219;50.588;9.504;2022-10-13T15:18:46;14.10;99.90
44513;DHT22;30219;50.588;9.504;2022-10-13T15:21:12;14.10;99.90
44513;DHT22;30219;50.588;9.504;2022-10-13T15:23:38;14.00;99.90
44513;DHT22;30219;50.588;9.504;2022-10-13T15:26:04;14.00;99.90
44513;DHT22;30219;50.588;9.504;2022-10-13T15:28:34;13.90;99.90
44513;DHT22;30219;50.588;9.504;2022-10-13T15:31:00;13.90;99.90
44513;DHT22;30219;50.588;9.504;2022-10-13T15:33:26;13.90;99.90
44513;DHT22;30219;50.588;9.504;2022-10-13T15:35:52;13.90;99.90
44513;DHT22;30219;50.588;9.504;2022-10-13T15:38:19;13.90;99.90
44513;DHT22;30219;50.588;9.504;2022-10-13T15:40:45;13.90;99.90
44513;DHT22;30219;50.588;9.504;2022-10-13T15:43:11;13.90;99.90
44513;DHT22;30219;50.588;9.504;2022-10-13T15:45:37;13.90;99.90
44513;DHT22;30219;50.588;9.504;2022-10-13T15:48:07;13.90;99.90
44513;DHT22;30219;50.588;9.504;2022-10-13T15:50:35;13.80;99.90
44513;DHT22;30219;50.588;9.504;2022-10-13T15:53:02;13.70;99.90
44513;DHT22;30219;50.588;9.504;2022-10-13T15:55:28;13.70;99.90
44513;DHT22;30219;50.588;9.504;2022-10-13T15:57:53;13.60;99.90
44513;DHT22;30219;50.588;9.504;2022-10-13T16:00:19;13.60;99.90
44513;DHT22;30219;50.588;9.504;2022-10-13T16:02:48;13.50;99.90
44513;DHT22;30219;50.588;9.504;2022-10-13T16:05:14;13.50;99.90
44513;DHT22;30219;50.588;9.504;2022-10-13T16:07:40;13.50;99.90
44513;DHT22;30219;50.588;9.504;2022-10-13T16:10:07;13.40;99.90
44513;DHT22;30219;50.588;9.504;2022-10-13T16:12:33;13.40;99.90
44513;DHT22;30219;50.588;9.504;2022-10-13T16:14:58;13.50;99.90
44513;DHT22;30219;50.588;9.504;2022-10-13T16:17:24;13.40;99.90
44513;DHT22;30219;50.588;9.504;2022-10-13T16:19:49;13.40;99.90
44513;DHT22;30219;50.588;9.504;2022-10-13T16:22:15;13.40;99.90
44513;DHT22;30219;50.588;9.504;2022-10-13T16:24:41;13.30;99.90
44513;DHT22;30219;50.588;9.504;2022-10-13T16:27:07;13.30;99.90
44513;DHT22;30219;50.588;9.504;2022-10-13T16:29:32;13.30;99.90
44513;DHT22;30219;50.588;9.504;2022-10-13T16:31:59;13.20;99.90
44513;DHT22;30219;50.588;9.504;2022-10-13T16:34:25;13.20;99.90
44513;DHT22;30219;50.588;9.504;2022-10-13T16:36:51;13.20;99.90
44513;DHT22;30219;50.588;9.504;2022-10-13T16:39:17;13.20;99.90
44513;DHT22;30219;50.588;9.504;2022-10-13T16:41:42;13.10;99.90
44513;DHT22;30219;50.588;9.504;2022-10-13T16:44:08;13.10;99.90
44513;DHT22;30219;50.588;9.504;2022-10-13T16:46:34;13.10;99.90
44513;DHT22;30219;50.588;9.504;2022-10-13T16:48:59;13.20;99.90
44513;DHT22;30219;50.588;9.504;2022-10-13T16:51:26;13.20;99.90
44513;DHT22;30219;50.588;9.504;2022-10-13T16:53:54;13.10;99.90
44513;DHT22;30219;50.588;9.504;2022-10-13T16:56:21;13.10;99.90
44513;DHT22;30219;50.588;9.504;2022-10-13T16:59:02;13.10;99.90
44513;DHT22;30219;50.588;9.504;2022-10-13T17:01:29;13.10;99.90
44513;DHT22;30219;50.588;9.504;2022-10-13T17:03:55;13.10;99.90
44513;DHT22;30219;50.588;9.504;2022-10-13T17:06:22;13.20;99.90
44513;DHT22;30219;50.588;9.504;2022-10-13T17:08:48;13.10;99.90
44513;DHT22;30219;50.588;9.504;2022-10-13T17:11:16;13.10;99.90
44513;DHT22;30219;50.588;9.504;2022-10-13T17:13:42;13.20;99.90
44513;DHT22;30219;50.588;9.504;2022-10-13T17:16:07;13.20;99.90
44513;DHT22;30219;50.588;9.504;2022-10-13T17:18:33;13.30;99.90
44513;DHT22;30219;50.588;9.504;2022-10-13T17:21:01;13.20;99.90
44513;DHT22;30219;50.588;9.504;2022-10-13T17:23:27;13.30;99.90
44513;DHT22;30219;50.588;9.504;2022-10-13T17:25:54;13.20;99.90
44513;DHT22;30219;50.588;9.504;2022-10-13T17:28:21;13.30;99.90
44513;DHT22;30219;50.588;9.504;2022-10-13T17:31:01;13.30;99.90
44513;DHT22;30219;50.588;9.504;2022-10-13T17:33:30;13.20;99.90
44513;DHT22;30219;50.588;9.504;2022-10-13T17:36:01;13.20;99.90
44513;DHT22;30219;50.588;9.504;2022-10-13T17:38:27;13.20;99.90